Time;durP1;ratioP1;P1;durP2;ratioP2;P2;SDS_P1;SDS_P2;PMS_P1;PMS_P2;Temp;Humidity;BMP_temperature;BMP_pressure;BME280_temperature;BME280_humidity;BME280_pressure;Samples;Min_cycle;Max_cycle;Signal;HPM_P1;HPM_P2
2022/10/20 00:01:11;;;;;;;;;;;7.90;99.90;;;;;;5030667;28;19996;-70
2022/10/20 00:03:37;;;;;;;;;;;7.90;99.90;;;;;;5030590;28;20374;-70
2022/10/20 00:06:11;;;;;;;;;;;7.90;99.90;;;;;;5030553;28;19942;-70
2022/10/20 00:08:37;;;;;;;;;;;7.70;99.90;;;;;;5030530;28;19952;-70
2022/10/20 00:11:02;;;;;;;;;;;7.80;99.90;;;;;;5030569;28;20370;-70
2022/10/20 00:13:28;;;;;;;;;;;7.70;99.90;;;;;;5030415;28;19920;-69
2022/10/20 00:15:54;;;;;;;;;;;7.70;99.90;;;;;;5032712;28;20015;-70
2022/10/20 00:18:20;;;;;;;;;;;7.70;99.90;;;;;;5033997;28;19909;-70
2022/10/20 00:20:45;;;;;;;;;;;7.70;99.90;;;;;;5033890;28;19909;-70
2022/10/20 00:23:11;;;;;;;;;;;7.70;99.90;;;;;;5032717;28;19910;-70
2022/10/20 00:25:36;;;;;;;;;;;7.70;99.90;;;;;;5033890;28;20019;-70
2022/10/20 00:28:02;;;;;;;;;;;7.70;99.90;;;;;;5032531;28;19909;-70
2022/10/20 00:30:27;;;;;;;;;;;7.70;99.90;;;;;;5033821;28;19955;-70
2022/10/20 00:32:53;;;;;;;;;;;7.70;99.90;;;;;;5033685;28;19940;-69
2022/10/20 00:35:18;;;;;;;;;;;7.70;99.90;;;;;;5033699;28;19909;-70
2022/10/20 00:37:44;;;;;;;;;;;7.70;99.90;;;;;;5033655;28;19909;-70
2022/10/20 00:40:09;;;;;;;;;;;7.70;99.90;;;;;;5033655;28;19913;-70
2022/10/20 00:42:35;;;;;;;;;;;7.70;99.90;;;;;;5033578;28;19940;-70
2022/10/20 00:45:00;;;;;;;;;;;7.70;99.90;;;;;;5033521;28;19909;-70
2022/10/20 00:47:43;;;;;;;;;;;7.80;99.90;;;;;;5033498;28;19931;-70
2022/10/20 00:50:12;;;;;;;;;;;7.80;99.90;;;;;;5033476;28;20358;-70
2022/10/20 00:52:38;;;;;;;;;;;7.80;99.90;;;;;;5033203;28;19974;-70
2022/10/20 00:55:04;;;;;;;;;;;7.80;99.90;;;;;;5033375;28;19913;-70
2022/10/20 00:57:30;;;;;;;;;;;7.70;99.90;;;;;;5033346;28;20011;-70
2022/10/20 00:59:56;;;;;;;;;;;7.70;99.90;;;;;;5033397;28;19916;-70
2022/10/20 01:02:21;;;;;;;;;;;7.70;99.90;;;;;;5033288;28;20294;-70
2022/10/20 01:04:47;;;;;;;;;;;7.70;99.90;;;;;;5031977;28;20385;-70
2022/10/20 01:07:13;;;;;;;;;;;7.70;99.90;;;;;;5033171;28;19952;-70
2022/10/20 01:09:38;;;;;;;;;;;7.70;99.90;;;;;;5033165;28;20285;-70
2022/10/20 01:12:07;;;;;;;;;;;7.70;99.90;;;;;;5033074;28;19917;-70
2022/10/20 01:14:45;;;;;;;;;;;7.80;99.90;;;;;;5033347;28;19916;-70
2022/10/20 01:17:31;;;;;;;;;;;7.80;99.90;;;;;;5033041;28;20371;-70
2022/10/20 01:20:06;;;;;;;;;;;7.70;99.90;;;;;;5032933;28;20103;-70
2022/10/20 01:22:51;;;;;;;;;;;7.70;99.90;;;;;;5033013;28;19916;-70
2022/10/20 01:25:21;;;;;;;;;;;7.70;99.90;;;;;;5032382;28;19963;-70
2022/10/20 01:27:50;;;;;;;;;;;7.70;99.90;;;;;;5032865;28;19909;-70
2022/10/20 01:30:17;;;;;;;;;;;7.70;99.90;;;;;;5031677;28;19910;-70
2022/10/20 01:32:51;;;;;;;;;;;7.70;99.90;;;;;;5032784;28;19936;-70
2022/10/20 01:35:36;;;;;;;;;;;7.70;99.90;;;;;;5032792;28;20285;-71
2022/10/20 01:38:08;;;;;;;;;;;7.70;99.90;;;;;;5032711;28;19931;-71
2022/10/20 01:40:37;;;;;;;;;;;7.70;99.90;;;;;;5032686;28;20007;-70
2022/10/20 01:43:06;;;;;;;;;;;7.70;99.90;;;;;;5032829;28;20398;-71
2022/10/20 01:45:33;;;;;;;;;;;7.70;99.90;;;;;;5032710;28;19909;-70
2022/10/20 01:48:01;;;;;;;;;;;7.70;99.90;;;;;;5031333;28;19909;-70
2022/10/20 01:50:27;;;;;;;;;;;7.80;99.90;;;;;;5031445;28;19916;-70
2022/10/20 01:52:55;;;;;;;;;;;7.70;99.90;;;;;;5031034;28;19921;-70
2022/10/20 01:55:20;;;;;;;;;;;7.70;99.90;;;;;;5031404;28;19915;-70
2022/10/20 01:58:01;;;;;;;;;;;7.70;99.90;;;;;;5032462;28;20387;-70
2022/10/20 02:00:27;;;;;;;;;;;7.70;99.90;;;;;;5032424;28;19909;-70
2022/10/20 02:02:57;;;;;;;;;;;7.70;99.90;;;;;;5031113;28;19958;-70
2022/10/20 02:05:42;;;;;;;;;;;7.70;99.90;;;;;;5032407;28;20374;-70
2022/10/20 02:08:19;;;;;;;;;;;7.60;99.90;;;;;;5032181;28;19909;-70
2022/10/20 02:10:46;;;;;;;;;;;7.60;99.90;;;;;;5032244;28;19909;-70
2022/10/20 02:13:12;;;;;;;;;;;7.50;99.90;;;;;;5032402;28;19920;-70
2022/10/20 02:15:39;;;;;;;;;;;7.50;99.90;;;;;;5031000;28;19913;-70
2022/10/20 02:18:06;;;;;;;;;;;7.50;99.90;;;;;;5032131;28;19916;-70
2022/10/20 02:20:32;;;;;;;;;;;7.50;99.90;;;;;;5032082;28;19932;-70
2022/10/20 02:22:58;;;;;;;;;;;7.40;99.90;;;;;;5030767;28;19917;-70
2022/10/20 02:25:24;;;;;;;;;;;7.40;99.90;;;;;;5030755;28;19913;-70
2022/10/20 02:27:50;;;;;;;;;;;7.30;99.90;;;;;;5031963;28;19913;-70
2022/10/20 02:30:17;;;;;;;;;;;7.30;99.90;;;;;;5031951;28;20054;-70
2022/10/20 02:32:43;;;;;;;;;;;7.30;99.90;;;;;;5030613;28;20382;-70
2022/10/20 02:35:11;;;;;;;;;;;7.30;99.90;;;;;;5031880;28;20389;-70
2022/10/20 02:37:36;;;;;;;;;;;7.20;99.90;;;;;;5029621;28;20460;-70
2022/10/20 02:40:03;;;;;;;;;;;7.20;99.90;;;;;;5031820;28;19957;-70
2022/10/20 02:42:28;;;;;;;;;;;7.10;99.90;;;;;;5031758;28;19916;-70
2022/10/20 02:44:54;;;;;;;;;;;7.10;99.90;;;;;;5031723;28;19909;-70
2022/10/20 02:47:21;;;;;;;;;;;7.10;99.90;;;;;;5031769;28;19932;-70
2022/10/20 02:49:46;;;;;;;;;;;7.10;99.90;;;;;;5031592;28;20282;-70
2022/10/20 02:52:12;;;;;;;;;;;7.10;99.90;;;;;;5030097;28;19923;-70
2022/10/20 02:54:37;;;;;;;;;;;7.10;99.90;;;;;;5031503;28;20020;-70
2022/10/20 02:57:03;;;;;;;;;;;7.20;99.90;;;;;;5031533;28;19913;-70
2022/10/20 02:59:28;;;;;;;;;;;7.10;99.90;;;;;;5031586;28;20377;-70
2022/10/20 03:01:54;;;;;;;;;;;7.20;99.90;;;;;;5031461;28;19960;-70
2022/10/20 03:04:19;;;;;;;;;;;7.20;99.90;;;;;;5031679;28;19916;-70
2022/10/20 03:06:45;;;;;;;;;;;7.10;99.90;;;;;;5031371;28;20385;-69
2022/10/20 03:09:10;;;;;;;;;;;7.10;99.90;;;;;;5030095;28;20366;-70
2022/10/20 03:11:36;;;;;;;;;;;7.10;99.90;;;;;;5031310;28;19909;-70
2022/10/20 03:14:01;;;;;;;;;;;7.10;99.90;;;;;;5031268;28;19924;-70
2022/10/20 03:16:40;;;;;;;;;;;7.10;99.90;;;;;;5031238;28;19909;-70
2022/10/20 03:19:06;;;;;;;;;;;7.10;99.90;;;;;;5029932;28;20385;-70
2022/10/20 03:21:31;;;;;;;;;;;7.00;99.90;;;;;;5031231;28;19909;-70
2022/10/20 03:24:00;;;;;;;;;;;7.00;99.90;;;;;;5031177;28;19910;-69
2022/10/20 03:26:25;;;;;;;;;;;7.00;99.90;;;;;;5031180;28;20362;-69
2022/10/20 03:28:51;;;;;;;;;;;7.00;99.90;;;;;;5029857;28;19915;-70
2022/10/20 03:31:16;;;;;;;;;;;7.00;99.90;;;;;;5029783;28;20427;-70
2022/10/20 03:33:41;;;;;;;;;;;6.90;99.90;;;;;;5029753;28;19919;-70
2022/10/20 03:36:07;;;;;;;;;;;6.90;99.90;;;;;;5030962;28;19910;-70
2022/10/20 03:38:32;;;;;;;;;;;7.00;99.90;;;;;;5031216;28;19909;-70
2022/10/20 03:40:58;;;;;;;;;;;7.00;99.90;;;;;;5029659;28;19988;-69
2022/10/20 03:43:23;;;;;;;;;;;6.90;99.90;;;;;;5030961;28;19913;-70
2022/10/20 03:45:49;;;;;;;;;;;6.90;99.90;;;;;;5029590;28;19956;-70
2022/10/20 03:48:14;;;;;;;;;;;6.90;99.90;;;;;;5030623;28;19909;-70
2022/10/20 03:50:41;;;;;;;;;;;6.80;99.90;;;;;;5030698;28;19909;-69
2022/10/20 03:53:07;;;;;;;;;;;6.80;99.90;;;;;;5029324;28;19925;-69
2022/10/20 03:55:32;;;;;;;;;;;6.90;99.90;;;;;;5029601;28;19914;-70
2022/10/20 03:57:58;;;;;;;;;;;6.90;99.90;;;;;;5030687;28;19909;-69
2022/10/20 04:00:23;;;;;;;;;;;6.80;99.90;;;;;;5029597;28;19999;-70
2022/10/20 04:02:49;;;;;;;;;;;6.80;99.90;;;;;;5030874;28;19913;-70
2022/10/20 04:05:16;;;;;;;;;;;6.70;99.90;;;;;;5030603;28;19909;-69
2022/10/20 04:07:41;;;;;;;;;;;6.70;99.90;;;;;;5030554;28;20005;-70
2022/10/20 04:10:07;;;;;;;;;;;6.70;99.90;;;;;;5030512;28;19957;-70
2022/10/20 04:12:33;;;;;;;;;;;6.80;99.90;;;;;;5030683;28;19913;-70
2022/10/20 04:14:58;;;;;;;;;;;6.80;99.90;;;;;;5030484;28;19932;-70
2022/10/20 04:17:24;;;;;;;;;;;6.90;99.90;;;;;;5029208;28;19909;-69
2022/10/20 04:19:49;;;;;;;;;;;6.90;99.90;;;;;;5030422;28;19921;-69
2022/10/20 04:22:15;;;;;;;;;;;6.90;99.90;;;;;;5030367;28;19917;-70
2022/10/20 04:24:40;;;;;;;;;;;6.90;99.90;;;;;;5029094;28;19916;-70
2022/10/20 04:27:06;;;;;;;;;;;6.90;99.90;;;;;;5030293;28;20286;-70
2022/10/20 04:29:31;;;;;;;;;;;6.90;99.90;;;;;;5030205;28;19931;-70
2022/10/20 04:31:57;;;;;;;;;;;6.80;99.90;;;;;;5012555;28;19909;-70
2022/10/20 04:34:22;;;;;;;;;;;6.80;99.90;;;;;;5028907;28;19913;-70
2022/10/20 04:36:48;;;;;;;;;;;6.80;99.90;;;;;;5030216;28;19913;-69
2022/10/20 04:39:13;;;;;;;;;;;6.80;99.90;;;;;;5030154;28;19956;-70
2022/10/20 04:41:39;;;;;;;;;;;6.90;99.90;;;;;;5030186;28;19914;-70
2022/10/20 04:44:04;;;;;;;;;;;6.80;99.90;;;;;;5030116;28;19932;-70
2022/10/20 04:46:30;;;;;;;;;;;6.90;99.90;;;;;;5030062;28;19909;-70
2022/10/20 04:48:55;;;;;;;;;;;6.90;99.90;;;;;;5030067;28;20000;-70
2022/10/20 04:51:21;;;;;;;;;;;6.80;99.90;;;;;;5030322;28;20419;-70
2022/10/20 04:53:46;;;;;;;;;;;6.90;99.90;;;;;;5029780;28;19922;-70
2022/10/20 04:56:13;;;;;;;;;;;6.90;99.90;;;;;;5029978;28;20252;-70
2022/10/20 04:58:39;;;;;;;;;;;6.90;99.90;;;;;;5028722;28;19909;-70
2022/10/20 05:01:07;;;;;;;;;;;6.80;99.90;;;;;;5030903;28;19916;-70
2022/10/20 05:03:33;;;;;;;;;;;6.80;99.90;;;;;;5032030;28;20007;-70
2022/10/20 05:06:15;;;;;;;;;;;6.80;99.90;;;;;;5033062;28;19976;-69
2022/10/20 05:08:41;;;;;;;;;;;6.70;99.90;;;;;;5032815;28;19916;-69
2022/10/20 05:11:07;;;;;;;;;;;6.70;99.90;;;;;;5033064;28;20412;-70
2022/10/20 05:13:33;;;;;;;;;;;6.60;99.90;;;;;;5033561;28;19917;-70
2022/10/20 05:15:58;;;;;;;;;;;6.60;99.90;;;;;;5033095;28;19915;-69
2022/10/20 05:18:24;;;;;;;;;;;6.60;99.90;;;;;;5031902;28;19913;-69
2022/10/20 05:20:49;;;;;;;;;;;6.60;99.90;;;;;;5031789;28;19913;-70
2022/10/20 05:23:14;;;;;;;;;;;6.60;99.90;;;;;;5032923;28;19909;-69
2022/10/20 05:25:40;;;;;;;;;;;6.50;99.90;;;;;;5032978;28;19969;-69
2022/10/20 05:28:05;;;;;;;;;;;6.50;99.90;;;;;;5031775;28;19909;-69
2022/10/20 05:30:34;;;;;;;;;;;6.40;99.90;;;;;;5032904;28;19909;-70
2022/10/20 05:32:59;;;;;;;;;;;6.40;99.90;;;;;;5032843;28;20441;-70
2022/10/20 05:35:26;;;;;;;;;;;6.50;99.90;;;;;;5032830;28;19953;-69
2022/10/20 05:37:51;;;;;;;;;;;6.60;99.90;;;;;;5031494;28;19909;-69
2022/10/20 05:40:17;;;;;;;;;;;6.70;99.90;;;;;;5032987;28;19910;-70
2022/10/20 05:42:42;;;;;;;;;;;6.60;99.90;;;;;;5032692;28;20041;-70
2022/10/20 05:45:08;;;;;;;;;;;6.70;99.90;;;;;;5032609;28;19909;-70
2022/10/20 05:47:33;;;;;;;;;;;6.70;99.90;;;;;;5032595;28;19914;-70
2022/10/20 05:49:59;;;;;;;;;;;6.70;99.90;;;;;;5032663;28;19913;-70
2022/10/20 05:52:24;;;;;;;;;;;6.70;99.90;;;;;;5032299;28;19928;-70
2022/10/20 05:54:50;;;;;;;;;;;6.80;99.90;;;;;;5031375;28;19913;-70
2022/10/20 05:57:15;;;;;;;;;;;6.80;99.90;;;;;;5031173;28;19958;-70
2022/10/20 05:59:40;;;;;;;;;;;6.80;99.90;;;;;;5032323;28;19975;-70
2022/10/20 06:02:07;;;;;;;;;;;6.80;99.90;;;;;;5030827;28;19913;-70
2022/10/20 06:04:33;;;;;;;;;;;6.80;99.90;;;;;;5027877;28;19914;-69
2022/10/20 06:06:58;;;;;;;;;;;6.70;99.90;;;;;;5026079;27;19944;-70
2022/10/20 06:09:24;;;;;;;;;;;6.80;99.90;;;;;;5029806;28;19970;-69
2022/10/20 06:11:49;;;;;;;;;;;6.80;99.90;;;;;;5029052;28;20007;-70
2022/10/20 06:14:16;;;;;;;;;;;6.90;99.90;;;;;;5017870;28;19924;-71
2022/10/20 06:16:42;;;;;;;;;;;6.90;99.90;;;;;;5029157;28;20051;-69
2022/10/20 06:19:07;;;;;;;;;;;7.00;99.90;;;;;;5028202;28;20374;-70
2022/10/20 06:21:33;;;;;;;;;;;7.10;99.90;;;;;;5022676;28;20355;-70
2022/10/20 06:23:59;;;;;;;;;;;7.10;99.90;;;;;;5029676;28;20046;-70
2022/10/20 06:26:25;;;;;;;;;;;7.20;99.90;;;;;;5031636;28;19913;-70
2022/10/20 06:28:53;;;;;;;;;;;7.30;99.90;;;;;;5031922;28;19916;-70
2022/10/20 06:31:20;;;;;;;;;;;7.50;99.90;;;;;;5026436;28;19913;-70
2022/10/20 06:33:46;;;;;;;;;;;7.50;99.90;;;;;;5024655;28;19940;-70
2022/10/20 06:36:12;;;;;;;;;;;7.50;99.90;;;;;;5027425;28;19913;-70
2022/10/20 06:38:38;;;;;;;;;;;7.50;99.90;;;;;;5028994;28;19921;-70
2022/10/20 06:41:05;;;;;;;;;;;7.60;99.90;;;;;;5029970;28;20290;-70
2022/10/20 06:43:30;;;;;;;;;;;7.70;99.90;;;;;;5059485;28;19913;-70
2022/10/20 06:45:57;;;;;;;;;;;7.70;99.90;;;;;;5029651;28;20051;-72
2022/10/20 06:48:22;;;;;;;;;;;7.70;99.90;;;;;;5029861;28;19913;-70
2022/10/20 06:50:48;;;;;;;;;;;7.70;99.90;;;;;;5030058;28;19909;-71
2022/10/20 06:53:14;;;;;;;;;;;7.70;99.90;;;;;;5026877;28;19925;-70
2022/10/20 06:55:39;;;;;;;;;;;7.80;99.90;;;;;;5027343;28;20355;-70
2022/10/20 06:58:05;;;;;;;;;;;7.80;99.90;;;;;;5030201;28;20421;-69
2022/10/20 07:00:30;;;;;;;;;;;7.90;99.90;;;;;;5026569;28;19924;-70
2022/10/20 07:02:55;;;;;;;;;;;7.90;99.90;;;;;;5033173;28;20046;-69
2022/10/20 07:05:21;;;;;;;;;;;8.00;99.90;;;;;;5038576;28;20011;-70
2022/10/20 07:07:46;;;;;;;;;;;8.00;99.90;;;;;;5036130;28;20378;-70
2022/10/20 07:10:12;;;;;;;;;;;8.10;99.90;;;;;;5031358;28;20286;-70
2022/10/20 07:12:37;;;;;;;;;;;8.10;99.90;;;;;;5030530;28;19963;-70
2022/10/20 07:15:03;;;;;;;;;;;8.20;99.90;;;;;;5027224;28;19913;-70
2022/10/20 07:17:29;;;;;;;;;;;8.20;99.90;;;;;;5030327;28;19917;-70
2022/10/20 07:19:54;;;;;;;;;;;8.30;99.90;;;;;;5031501;28;19953;-70
2022/10/20 07:22:20;;;;;;;;;;;8.40;99.90;;;;;;5031221;28;20310;-70
2022/10/20 07:24:45;;;;;;;;;;;8.50;99.90;;;;;;5030540;28;20011;-69
2022/10/20 07:27:10;;;;;;;;;;;8.60;99.90;;;;;;5060106;28;19914;-73
2022/10/20 07:29:36;;;;;;;;;;;8.80;99.90;;;;;;5029452;28;19919;-70
2022/10/20 07:32:01;;;;;;;;;;;8.90;99.90;;;;;;5036919;28;20365;-70
2022/10/20 07:34:27;;;;;;;;;;;9.10;99.90;;;;;;5028243;28;19921;-70
2022/10/20 07:36:53;;;;;;;;;;;9.20;99.90;;;;;;5031336;27;19917;-70
2022/10/20 07:39:18;;;;;;;;;;;9.30;99.90;;;;;;5032557;28;19920;-70
2022/10/20 07:41:46;;;;;;;;;;;9.50;99.90;;;;;;5030949;28;20358;-70
2022/10/20 07:44:11;;;;;;;;;;;9.70;99.90;;;;;;5025470;28;19928;-70
2022/10/20 07:46:37;;;;;;;;;;;9.90;99.90;;;;;;5026070;28;19913;-71
2022/10/20 07:49:03;;;;;;;;;;;10.00;99.90;;;;;;5028136;28;20282;-70
2022/10/20 07:51:29;;;;;;;;;;;10.10;99.90;;;;;;5030251;28;19913;-70
2022/10/20 07:53:58;;;;;;;;;;;10.40;99.90;;;;;;5033153;28;19922;-70
2022/10/20 07:56:26;;;;;;;;;;;10.50;99.90;;;;;;5027679;28;19968;-70
2022/10/20 07:58:51;;;;;;;;;;;10.70;99.90;;;;;;5028929;28;19920;-70
2022/10/20 08:01:17;;;;;;;;;;;10.70;99.90;;;;;;5028158;28;19913;-71
2022/10/20 08:03:42;;;;;;;;;;;11.00;99.90;;;;;;5029334;28;20004;-71
2022/10/20 08:06:07;;;;;;;;;;;11.20;99.90;;;;;;5029039;28;20346;-71
2022/10/20 08:08:33;;;;;;;;;;;11.30;99.90;;;;;;5029927;28;20024;-71
2022/10/20 08:10:59;;;;;;;;;;;11.30;99.90;;;;;;5027336;28;19913;-71
2022/10/20 08:13:24;;;;;;;;;;;11.50;99.90;;;;;;5030059;28;19917;-71
2022/10/20 08:15:50;;;;;;;;;;;11.60;99.90;;;;;;5029868;28;19917;-71
2022/10/20 08:18:15;;;;;;;;;;;11.80;99.90;;;;;;5029342;28;19913;-71
2022/10/20 08:20:41;;;;;;;;;;;12.00;99.90;;;;;;5028397;28;20362;-71
2022/10/20 08:23:07;;;;;;;;;;;12.00;99.90;;;;;;5094192;28;19931;-71
2022/10/20 08:25:32;;;;;;;;;;;12.10;99.90;;;;;;5021192;27;19914;-71
2022/10/20 08:27:58;;;;;;;;;;;12.20;99.90;;;;;;5019649;28;20329;-70
2022/10/20 08:30:24;;;;;;;;;;;12.40;99.90;;;;;;5042294;28;19919;-73
2022/10/20 08:32:50;;;;;;;;;;;12.70;99.90;;;;;;5026995;28;20405;-72
2022/10/20 08:35:15;;;;;;;;;;;12.80;99.90;;;;;;5029256;28;20347;-72
2022/10/20 08:37:41;;;;;;;;;;;13.10;99.90;;;;;;5032622;28;19920;-72
2022/10/20 08:40:07;;;;;;;;;;;13.30;99.90;;;;;;5032067;28;19952;-72
2022/10/20 08:42:35;;;;;;;;;;;13.60;99.90;;;;;;5031608;28;20286;-72
2022/10/20 08:45:00;;;;;;;;;;;14.40;99.90;;;;;;5030303;28;19913;-71
2022/10/20 08:47:29;;;;;;;;;;;14.90;99.90;;;;;;5021976;28;20362;-72
2022/10/20 08:49:54;;;;;;;;;;;15.40;99.90;;;;;;5023729;28;20386;-72
2022/10/20 08:52:21;;;;;;;;;;;15.50;99.90;;;;;;5030434;28;19971;-72
2022/10/20 08:54:49;;;;;;;;;;;15.50;99.90;;;;;;5057513;27;19918;-72
2022/10/20 08:57:19;;;;;;;;;;;15.40;99.90;;;;;;5038941;27;20393;-72
2022/10/20 08:59:44;;;;;;;;;;;15.80;99.90;;;;;;5030867;28;19959;-72
2022/10/20 09:02:13;;;;;;;;;;;16.40;99.90;;;;;;5029378;28;19953;-73
2022/10/20 09:04:42;;;;;;;;;;;16.50;99.90;;;;;;5030805;27;19949;-72
2022/10/20 09:07:21;;;;;;;;;;;16.40;99.90;;;;;;5032280;28;19951;-72
2022/10/20 09:09:47;;;;;;;;;;;16.70;99.90;;;;;;5032775;28;20346;-73
2022/10/20 09:12:14;;;;;;;;;;;16.40;99.90;;;;;;5042435;27;19999;-72
2022/10/20 09:14:39;;;;;;;;;;;16.50;99.90;;;;;;5030263;28;19940;-73
2022/10/20 09:17:08;;;;;;;;;;;16.40;99.90;;;;;;5031855;28;19920;-72
2022/10/20 09:19:34;;;;;;;;;;;16.40;99.90;;;;;;5032768;28;19928;-72
2022/10/20 09:22:03;;;;;;;;;;;16.30;99.90;;;;;;5021425;28;19909;-72
2022/10/20 09:24:34;;;;;;;;;;;16.40;99.90;;;;;;5011819;28;19925;-71
2022/10/20 09:27:17;;;;;;;;;;;16.90;99.90;;;;;;5029948;28;20405;-72
2022/10/20 09:29:44;;;;;;;;;;;17.20;99.90;;;;;;5030040;28;19913;-73
2022/10/20 09:32:18;;;;;;;;;;;17.50;99.90;;;;;;5032563;28;19968;-72
2022/10/20 09:34:44;;;;;;;;;;;17.60;99.90;;;;;;5028141;28;19945;-72
2022/10/20 09:37:11;;;;;;;;;;;17.20;99.90;;;;;;5022080;28;19963;-73
2022/10/20 09:42:21;;;;;;;;;;;16.70;99.90;;;;;;5126715;27;19935;-72
2022/10/20 09:44:48;;;;;;;;;;;16.70;99.90;;;;;;5083319;28;19917;-72
2022/10/20 09:47:14;;;;;;;;;;;16.80;99.90;;;;;;5087598;28;20381;-72
2022/10/20 09:49:40;;;;;;;;;;;16.70;99.90;;;;;;5106607;28;19919;-70
2022/10/20 09:52:15;;;;;;;;;;;16.90;99.90;;;;;;5085411;28;19997;-69
2022/10/20 09:54:44;;;;;;;;;;;16.80;99.90;;;;;;5089883;28;19959;-74
2022/10/20 09:57:15;;;;;;;;;;;16.90;99.90;;;;;;5097092;28;20491;-70
2022/10/20 09:59:44;;;;;;;;;;;17.00;99.90;;;;;;5083070;28;19920;-71
2022/10/20 10:05:10;;;;;;;;;;;16.80;99.90;;;;;;5126852;27;19923;-71
2022/10/20 10:07:36;;;;;;;;;;;16.70;99.90;;;;;;5086256;28;19923;-71
2022/10/20 10:10:04;;;;;;;;;;;16.80;99.90;;;;;;5090092;28;19908;-71
2022/10/20 10:12:31;;;;;;;;;;;16.80;99.90;;;;;;5086117;28;19928;-70
2022/10/20 10:14:58;;;;;;;;;;;16.80;99.90;;;;;;5089021;28;19970;-71
2022/10/20 10:17:32;;;;;;;;;;;16.90;99.90;;;;;;5084500;28;20022;-71
2022/10/20 10:19:58;;;;;;;;;;;17.10;99.90;;;;;;5089385;28;19915;-71
2022/10/20 10:22:24;;;;;;;;;;;17.20;99.90;;;;;;5090183;28;20275;-71
2022/10/20 10:24:50;;;;;;;;;;;16.90;99.90;;;;;;5086642;28;19917;-72
2022/10/20 10:27:18;;;;;;;;;;;16.70;99.90;;;;;;5088771;28;19963;-71
2022/10/20 10:29:44;;;;;;;;;;;16.60;99.90;;;;;;5089293;28;20385;-73
2022/10/20 10:32:21;;;;;;;;;;;16.50;99.90;;;;;;5088848;28;19951;-71
2022/10/20 10:34:59;;;;;;;;;;;16.60;99.90;;;;;;5089506;28;19916;-71
2022/10/20 10:37:25;;;;;;;;;;;16.60;99.90;;;;;;5090088;28;20419;-71
2022/10/20 10:39:51;;;;;;;;;;;16.40;99.90;;;;;;5089740;28;20565;-71
2022/10/20 10:42:24;;;;;;;;;;;16.40;99.90;;;;;;5089546;28;19913;-71
2022/10/20 10:44:56;;;;;;;;;;;16.60;99.90;;;;;;5068870;28;19923;-71
2022/10/20 10:47:42;;;;;;;;;;;16.60;99.90;;;;;;5069798;28;19955;-71
2022/10/20 10:50:27;;;;;;;;;;;16.70;99.90;;;;;;5069776;28;20007;-71
2022/10/20 10:55:53;;;;;;;;;;;16.70;99.90;;;;;;5143710;27;20373;-71
2022/10/20 10:58:38;;;;;;;;;;;16.70;99.90;;;;;;5111363;28;19912;-71
2022/10/20 11:04:01;;;;;;;;;;;16.70;99.90;;;;;;5116154;27;20388;-72
2022/10/20 11:06:35;;;;;;;;;;;16.70;99.90;;;;;;5081118;28;20292;-72
2022/10/20 11:09:07;;;;;;;;;;;16.60;99.90;;;;;;5074010;28;19912;-72
2022/10/20 11:11:44;;;;;;;;;;;16.60;99.90;;;;;;5084871;28;19917;-71
2022/10/20 11:14:17;;;;;;;;;;;16.70;99.90;;;;;;5079878;28;20380;-71
2022/10/20 11:16:47;;;;;;;;;;;16.70;99.90;;;;;;5082217;28;20353;-71
2022/10/20 11:19:32;;;;;;;;;;;16.70;99.90;;;;;;5089743;28;19958;-72
2022/10/20 11:22:16;;;;;;;;;;;16.60;99.90;;;;;;5085763;28;19917;-72
2022/10/20 11:24:46;;;;;;;;;;;16.50;99.90;;;;;;5079545;28;19925;-72
2022/10/20 11:27:13;;;;;;;;;;;16.60;99.90;;;;;;5078339;28;19913;-72
2022/10/20 11:29:43;;;;;;;;;;;16.70;99.90;;;;;;5102592;28;20273;-71
2022/10/20 11:32:16;;;;;;;;;;;16.70;99.90;;;;;;5089273;28;19918;-72
2022/10/20 11:34:49;;;;;;;;;;;16.80;99.90;;;;;;5090290;28;19931;-72
2022/10/20 11:37:31;;;;;;;;;;;16.80;99.90;;;;;;5088743;28;19913;-72
2022/10/20 11:40:15;;;;;;;;;;;16.90;99.90;;;;;;5090074;28;19908;-72
2022/10/20 11:42:44;;;;;;;;;;;16.90;99.90;;;;;;5081268;28;20323;-72
2022/10/20 11:45:21;;;;;;;;;;;16.80;99.90;;;;;;5078363;28;19962;-72
2022/10/20 11:47:49;;;;;;;;;;;16.80;99.90;;;;;;5078651;28;20370;-72
2022/10/20 11:50:16;;;;;;;;;;;16.80;99.90;;;;;;5080887;28;20441;-72
2022/10/20 11:52:47;;;;;;;;;;;16.80;99.90;;;;;;5087242;28;19938;-72
2022/10/20 11:55:27;;;;;;;;;;;16.80;99.90;;;;;;5081617;28;19943;-72
2022/10/20 11:58:12;;;;;;;;;;;16.70;99.90;;;;;;5084788;28;19913;-71
2022/10/20 12:00:57;;;;;;;;;;;16.60;99.90;;;;;;5088256;28;20043;-72
2022/10/20 12:03:43;;;;;;;;;;;16.60;99.90;;;;;;5115434;28;20343;-72
2022/10/20 12:06:28;;;;;;;;;;;16.50;99.90;;;;;;5087691;28;20358;-71
2022/10/20 12:09:14;;;;;;;;;;;16.40;99.90;;;;;;5081558;28;19920;-71
2022/10/20 12:14:26;;;;;;;;;;;16.30;99.90;;;;;;5133879;27;20389;-70
2022/10/20 12:19:29;;;;;;;;;;;16.30;99.90;;;;;;5135185;27;830054;-71
2022/10/20 12:21:57;;;;;;;;;;;16.20;99.90;;;;;;5182421;27;19911;-70
2022/10/20 12:24:38;;;;;;;;;;;16.20;99.90;;;;;;5179293;27;20066;-70
2022/10/20 12:27:16;;;;;;;;;;;16.20;99.90;;;;;;5160839;27;20064;-70
2022/10/20 12:34:59;;;;;;;;;;;16.20;99.90;;;;;;5130410;27;19919;-70
2022/10/20 12:37:27;;;;;;;;;;;16.20;99.90;;;;;;5081376;28;20403;-70
2022/10/20 12:39:53;;;;;;;;;;;16.10;99.90;;;;;;5080462;28;20053;-70
2022/10/20 12:42:27;;;;;;;;;;;16.10;99.90;;;;;;5079542;28;19995;-70
2022/10/20 12:44:53;;;;;;;;;;;16.10;99.90;;;;;;5079311;28;19912;-70
2022/10/20 12:47:26;;;;;;;;;;;16.10;99.90;;;;;;5078613;28;20389;-70
2022/10/20 12:49:53;;;;;;;;;;;16.10;99.90;;;;;;5080839;28;19909;-70
2022/10/20 12:52:20;;;;;;;;;;;16.10;99.90;;;;;;5075618;28;20386;-71
2022/10/20 12:54:51;;;;;;;;;;;16.10;99.90;;;;;;5077462;28;20291;-70
2022/10/20 12:57:35;;;;;;;;;;;16.10;99.90;;;;;;5086109;28;20270;-69
2022/10/20 13:00:01;;;;;;;;;;;16.00;99.90;;;;;;5096183;28;19912;-69
2022/10/20 13:02:30;;;;;;;;;;;16.00;99.90;;;;;;5076194;28;19971;-70
2022/10/20 13:04:58;;;;;;;;;;;16.00;99.90;;;;;;5070051;28;20441;-70
2022/10/20 13:07:44;;;;;;;;;;;16.00;99.90;;;;;;5059969;28;20431;-70
2022/10/20 13:10:29;;;;;;;;;;;16.00;99.90;;;;;;5069218;28;20354;-70
2022/10/20 13:13:04;;;;;;;;;;;16.00;99.90;;;;;;5064731;28;19917;-70
2022/10/20 13:15:37;;;;;;;;;;;16.00;99.90;;;;;;5066912;28;19925;-69
2022/10/20 13:21:05;;;;;;;;;;;16.00;99.90;;;;;;5128285;27;19916;-71
2022/10/20 13:23:47;;;;;;;;;;;16.10;99.90;;;;;;5085469;28;20326;-70
2022/10/20 13:26:19;;;;;;;;;;;16.00;99.90;;;;;;5089623;28;19935;-70
2022/10/20 13:28:46;;;;;;;;;;;16.00;99.90;;;;;;5084526;28;20405;-70
2022/10/20 13:31:19;;;;;;;;;;;16.00;99.90;;;;;;5087804;28;19971;-71
2022/10/20 13:33:50;;;;;;;;;;;15.90;99.90;;;;;;5090903;28;20396;-71
2022/10/20 13:36:21;;;;;;;;;;;15.90;99.90;;;;;;5090725;28;19919;-70
2022/10/20 13:38:52;;;;;;;;;;;15.90;99.90;;;;;;5085982;28;19912;-70
2022/10/20 13:41:38;;;;;;;;;;;15.80;99.90;;;;;;5082421;28;19970;-71
2022/10/20 13:44:11;;;;;;;;;;;15.80;99.90;;;;;;5088669;28;19920;-70
2022/10/20 13:46:45;;;;;;;;;;;15.80;99.90;;;;;;5087125;28;20390;-69
2022/10/20 13:49:31;;;;;;;;;;;15.70;99.90;;;;;;5088721;28;20406;-68
2022/10/20 13:51:59;;;;;;;;;;;15.70;99.90;;;;;;5088018;28;20007;-69
2022/10/20 13:54:29;;;;;;;;;;;15.50;99.90;;;;;;5087536;28;19912;-68
2022/10/20 13:56:55;;;;;;;;;;;15.40;99.90;;;;;;5086190;28;19909;-70
2022/10/20 13:59:22;;;;;;;;;;;15.40;99.90;;;;;;5088570;28;20452;-68
2022/10/20 14:01:50;;;;;;;;;;;15.30;99.90;;;;;;5086676;28;19908;-69
2022/10/20 14:04:27;;;;;;;;;;;15.20;99.90;;;;;;5088338;28;19912;-69
2022/10/20 14:06:53;;;;;;;;;;;15.20;99.90;;;;;;5085116;28;20025;-69
2022/10/20 14:09:21;;;;;;;;;;;15.10;99.90;;;;;;5088380;28;19920;-69
2022/10/20 14:11:48;;;;;;;;;;;15.10;99.90;;;;;;5088010;28;19913;-69
2022/10/20 14:14:16;;;;;;;;;;;15.00;99.90;;;;;;5084732;28;20673;-69
2022/10/20 14:16:47;;;;;;;;;;;14.90;99.90;;;;;;5087669;28;19920;-69
2022/10/20 14:19:13;;;;;;;;;;;14.80;99.90;;;;;;5086136;28;19924;-69
2022/10/20 14:21:41;;;;;;;;;;;14.80;99.90;;;;;;5088707;28;19912;-69
2022/10/20 14:24:11;;;;;;;;;;;14.70;99.90;;;;;;5087262;28;19935;-68
2022/10/20 14:26:38;;;;;;;;;;;14.70;99.90;;;;;;5088881;28;19915;-69
2022/10/20 14:29:04;;;;;;;;;;;14.60;99.90;;;;;;5088964;28;19914;-69
2022/10/20 14:31:29;;;;;;;;;;;14.60;99.90;;;;;;5079576;28;20358;-68
2022/10/20 14:33:55;;;;;;;;;;;14.50;99.90;;;;;;5076112;28;19915;-69
2022/10/20 14:36:23;;;;;;;;;;;14.50;99.90;;;;;;5075833;28;19913;-68
2022/10/20 14:38:50;;;;;;;;;;;14.50;99.90;;;;;;5075965;28;19957;-68
2022/10/20 14:41:32;;;;;;;;;;;14.50;99.90;;;;;;5074746;28;20392;-68
2022/10/20 14:43:59;;;;;;;;;;;14.50;99.90;;;;;;5076013;28;20392;-68
2022/10/20 14:46:41;;;;;;;;;;;14.60;99.90;;;;;;5076202;28;19916;-68
2022/10/20 14:49:13;;;;;;;;;;;14.50;99.90;;;;;;5075840;28;19908;-68
2022/10/20 14:51:42;;;;;;;;;;;14.60;99.90;;;;;;5075850;28;20388;-68
2022/10/20 14:54:15;;;;;;;;;;;14.60;99.90;;;;;;5075737;28;19908;-68
2022/10/20 14:56:43;;;;;;;;;;;14.60;99.90;;;;;;5075701;28;19958;-69